Time;durP1;ratioP1;P1;durP2;ratioP2;P2;SDS_P1;SDS_P2;PMS_P1;PMS_P2;Temp;Humidity;BMP_temperature;BMP_pressure;BME280_temperature;BME280_humidity;BME280_pressure;Samples;Min_cycle;Max_cycle;Signal;HPM_P1;HPM_P2
2022/11/16 00:01:21;;;;;;;9.85;8.85;;;;;;;10.53;100.00;102262.81;5070430;28;20035;-61
2022/11/16 00:03:47;;;;;;;11.02;9.65;;;;;;;10.52;100.00;101216.41;5049380;28;20040;-61
2022/11/16 00:06:13;;;;;;;14.25;10.90;;;;;;;10.46;100.00;100511.84;5055717;28;20433;-60
2022/11/16 00:09:21;;;;;;;10.55;9.48;;;;;;;10.48;100.00;99470.91;5070348;28;20082;-61
2022/11/16 00:11:35;;;;;;;11.13;10.10;;;;;;;10.46;100.00;98075.78;5069458;28;20438;-59
2022/11/16 00:14:01;;;;;;;10.15;9.15;;;;;;;10.46;100.00;97032.22;5070605;28;20027;-59
2022/11/16 00:16:26;;;;;;;13.52;11.02;;;;;;;10.43;100.00;95636.56;5068976;28;20045;-59
2022/11/16 00:18:57;;;;;;;11.02;9.55;;;;;;;10.48;100.00;94601.31;5070624;28;20501;-59
2022/11/16 00:21:23;;;;;;;11.45;10.40;;;;;;;10.51;100.00;93909.97;5069054;28;20078;-59
2022/11/16 00:23:48;;;;;;;12.60;10.40;;;;;;;10.44;100.00;93900.06;5060740;28;20047;-59
2022/11/16 00:26:14;;;;;;;12.82;10.80;;;;;;;10.48;100.00;93210.34;5050871;28;20021;-59
2022/11/16 00:28:39;;;;;;;11.85;10.23;;;;;;;10.45;100.00;92510.91;5070473;28;20040;-60
2022/11/16 00:31:06;;;;;;;16.85;10.52;;;;;;;10.45;100.00;91816.91;5068530;28;20028;-60
2022/11/16 00:33:32;;;;;;;12.18;10.07;;;;;;;10.45;100.00;91121.47;5063548;28;20024;-59
2022/11/16 00:36:03;;;;;;;12.25;10.15;;;;;;;10.44;100.00;90426.22;5068992;28;20399;-59
2022/11/16 00:38:28;;;;;;;12.25;10.90;;;;;;;10.44;100.00;89731.81;5070046;28;20028;-59
2022/11/16 00:40:53;;;;;;;12.95;10.63;;;;;;;10.43;100.00;89036.09;5070346;28;20027;-59
2022/11/16 00:43:19;;;;;;;12.73;11.43;;;;;;;10.45;100.00;87997.75;5068824;28;20052;-59
2022/11/16 00:45:44;;;;;;;12.10;10.48;;;;;;;10.44;100.00;87649.31;5068466;28;20035;-59
2022/11/16 00:48:11;;;;;;;12.20;11.07;;;;;;;10.45;100.00;86956.78;5068959;28;20101;-59
2022/11/16 00:50:37;;;;;;;11.90;10.43;;;;;;;10.44;100.00;86607.72;5070484;28;20029;-60
2022/11/16 00:53:03;;;;;;;13.30;11.95;;;;;;;10.44;100.00;85914.69;5068269;28;20123;-60
2022/11/16 00:55:28;;;;;;;11.93;10.73;;;;;;;10.46;100.00;85223.13;5069977;28;20107;-60
2022/11/16 00:57:54;;;;;;;12.82;10.48;;;;;;;10.47;100.00;84878.38;5068612;28;20052;-60
2022/11/16 01:00:19;;;;;;;13.82;12.38;;;;;;;10.43;100.00;84526.19;5070092;28;20036;-60
2022/11/16 01:02:45;;;;;;;15.50;12.93;;;;;;;10.45;100.00;83834.81;5068652;28;20043;-60
2022/11/16 01:05:11;;;;;;;19.70;11.88;;;;;;;10.48;100.00;83146.25;5070234;28;20029;-60
2022/11/16 01:07:38;;;;;;;14.55;12.18;;;;;;;10.42;100.00;83137.53;5066989;28;20040;-60
2022/11/16 01:10:07;;;;;;;12.13;10.32;;;;;;;10.47;100.00;83144.22;5050164;28;20029;-61
2022/11/16 01:12:32;;;;;;;14.13;11.63;;;;;;;10.42;100.00;83484.81;5061795;28;20040;-60
2022/11/16 01:14:58;;;;;;;15.50;13.80;;;;;;;10.39;100.00;83134.16;5069663;28;20040;-60
2022/11/16 01:17:23;;;;;;;13.63;11.65;;;;;;;10.37;100.00;83131.47;5068762;28;20090;-60
2022/11/16 01:19:48;;;;;;;15.05;11.68;;;;;;;10.35;100.00;82781.56;5069682;28;20036;-60
2022/11/16 01:22:14;;;;;;;15.90;13.13;;;;;;;10.36;100.00;82090.56;5068242;28;20442;-60
2022/11/16 01:24:39;;;;;;;12.95;11.65;;;;;;;10.35;100.00;82088.59;5069835;28;20024;-60
2022/11/16 01:27:05;;;;;;;14.70;11.55;;;;;;;10.38;100.00;81400.34;5068955;28;20048;-60
2022/11/16 01:29:30;;;;;;;18.20;14.00;;;;;;;10.39;100.00;81055.22;5052161;28;20029;-60
2022/11/16 01:31:56;;;;;;;13.60;12.25;;;;;;;10.30;100.00;81044.09;5067922;28;20105;-60
2022/11/16 01:34:21;;;;;;;14.85;13.13;;;;;;;10.32;100.00;80699.69;5070266;28;20028;-60
2022/11/16 01:36:47;;;;;;;15.77;14.18;;;;;;;10.33;100.00;80354.69;5058839;28;20033;-61
2022/11/16 01:39:13;;;;;;;16.48;14.15;;;;;;;10.29;100.00;80003.88;5071143;28;20070;-60
2022/11/16 01:41:39;;;;;;;14.95;12.68;;;;;;;10.35;100.00;79318.47;5073633;28;20025;-59
2022/11/16 01:44:30;;;;;;;13.15;11.85;;;;;;;10.38;100.00;78976.09;5071362;28;20053;-59
2022/11/16 01:46:59;;;;;;;14.18;12.10;;;;;;;10.34;100.00;78970.97;5071869;28;20020;-59
2022/11/16 01:49:27;;;;;;;15.80;13.65;;;;;;;10.34;100.00;78970.97;5073213;28;20031;-59
2022/11/16 01:51:58;;;;;;;15.90;13.55;;;;;;;10.32;100.00;78969.06;5071224;28;20028;-59
2022/11/16 01:54:23;;;;;;;13.73;12.43;;;;;;;10.32;100.00;78622.25;5073542;28;20498;-59
2022/11/16 01:56:51;;;;;;;15.88;12.75;;;;;;;10.35;100.00;78279.94;5072871;28;20032;-59
2022/11/16 01:59:16;;;;;;;14.38;12.15;;;;;;;10.37;100.00;77935.69;5071710;28;20086;-59
2022/11/16 02:01:42;;;;;;;16.73;15.02;;;;;;;10.36;100.00;77588.97;5073254;28;20020;-59
2022/11/16 02:04:12;;;;;;;15.77;13.68;;;;;;;10.35;100.00;77587.09;5065437;28;20507;-60
2022/11/16 02:06:46;;;;;;;17.20;13.88;;;;;;;10.36;100.00;77588.97;5052714;28;20503;-60
2022/11/16 02:09:57;;;;;;;15.70;13.23;;;;;;;10.36;100.00;77588.31;5052765;28;20076;-60
2022/11/16 02:12:50;;;;;;;18.55;13.70;;;;;;;10.39;100.00;77246.63;5055779;28;20119;-60
2022/11/16 02:15:40;;;;;;;15.15;13.57;;;;;;;10.39;100.00;77246.63;5072745;28;20131;-60
2022/11/16 02:18:31;;;;;;;18.92;14.35;;;;;;;10.41;100.00;77249.13;5062529;28;20510;-60
2022/11/16 02:21:02;;;;;;;16.77;13.95;;;;;;;10.40;100.00;76901.81;5072386;28;20467;-60
2022/11/16 02:23:35;;;;;;;15.70;14.10;;;;;;;10.39;100.00;76900.59;5071014;28;20052;-60
2022/11/16 02:26:22;;;;;;;17.05;14.02;;;;;;;10.39;100.00;76554.56;5072281;28;20138;-60
2022/11/16 02:29:14;;;;;;;18.77;14.73;;;;;;;10.40;100.00;76555.78;5070452;28;20046;-60
2022/11/16 02:32:04;;;;;;;16.65;13.60;;;;;;;10.42;100.00;76212.25;5070867;28;20041;-60
2022/11/16 02:34:37;;;;;;;15.45;12.68;;;;;;;10.41;100.00;76211.03;5063179;28;20052;-60
2022/11/16 02:37:06;;;;;;;16.20;13.90;;;;;;;10.35;100.00;76203.66;5070637;28;20045;-60
2022/11/16 02:39:35;;;;;;;18.35;15.85;;;;;;;10.38;100.00;75861.41;5072261;28;20395;-60
2022/11/16 02:42:03;;;;;;;18.40;15.77;;;;;;;10.38;100.00;75861.41;5070753;28;20040;-60
2022/11/16 02:44:35;;;;;;;15.43;13.82;;;;;;;10.38;100.00;75515.47;5059920;28;20446;-59
2022/11/16 02:47:06;;;;;;;21.35;15.50;;;;;;;10.42;100.00;74827.91;5045244;28;20040;-59
2022/11/16 02:49:35;;;;;;;20.38;15.93;;;;;;;10.42;100.00;74482.03;5052436;28;20032;-59
2022/11/16 02:52:01;;;;;;;18.58;15.98;;;;;;;10.43;100.00;74138.00;5053999;28;20072;-59
2022/11/16 02:54:27;;;;;;;20.25;14.77;;;;;;;10.41;100.00;74135.59;5072525;28;20051;-59
2022/11/16 02:57:01;;;;;;;18.92;16.92;;;;;;;10.45;100.00;73794.56;5070316;28;20632;-59
2022/11/16 02:59:38;;;;;;;18.48;15.43;;;;;;;10.47;100.00;73451.13;5071519;28;20032;-59
2022/11/16 03:02:29;;;;;;;20.65;17.00;;;;;;;10.44;100.00;73447.59;5069593;28;20051;-59
2022/11/16 03:05:01;;;;;;;17.88;15.77;;;;;;;10.44;100.00;73447.00;5064400;28;20075;-59
2022/11/16 03:07:33;;;;;;;24.85;18.27;;;;;;;10.44;100.00;73101.84;5062716;28;20056;-60
2022/11/16 03:09:59;;;;;;;21.23;18.33;;;;;;;10.44;100.00;73101.84;5071749;28;20020;-61
2022/11/16 03:12:29;;;;;;;21.35;15.48;;;;;;;10.41;100.00;73098.31;5069893;28;20075;-61
2022/11/16 03:15:00;;;;;;;24.30;18.08;;;;;;;10.40;100.00;72751.41;5071301;28;20035;-62
2022/11/16 03:17:32;;;;;;;20.13;16.80;;;;;;;10.40;100.00;72751.41;5070555;28;20033;-62
2022/11/16 03:20:05;;;;;;;21.13;17.10;;;;;;;10.39;100.00;72750.25;5071329;28;20066;-62
2022/11/16 03:22:38;;;;;;;19.33;16.85;;;;;;;10.39;100.00;72404.59;5069840;28;20114;-62
2022/11/16 03:25:05;;;;;;;25.55;18.40;;;;;;;10.40;100.00;72405.75;5071352;28;20027;-62
2022/11/16 03:27:40;;;;;;;23.27;20.10;;;;;;;10.35;100.00;72399.91;5067740;28;20064;-62
2022/11/16 03:30:11;;;;;;;20.85;16.90;;;;;;;10.36;100.00;72055.47;5071701;28;20036;-61
2022/11/16 03:33:07;;;;;;;24.10;17.35;;;;;;;10.35;100.00;72054.31;5069991;28;20044;-62
2022/11/16 03:35:54;;;;;;;21.95;17.70;;;;;;;10.35;100.00;72053.75;5071035;28;20112;-62
2022/11/16 03:38:23;;;;;;;20.40;17.23;;;;;;;10.37;100.00;71710.47;5070111;28;20048;-61
2022/11/16 03:40:50;;;;;;;21.27;16.90;;;;;;;10.32;100.00;71705.25;5054971;28;20018;-60
2022/11/16 03:43:17;;;;;;;22.23;18.67;;;;;;;10.32;100.00;71705.25;5048452;28;20041;-61
2022/11/16 03:45:44;;;;;;;24.53;20.50;;;;;;;10.30;100.00;71702.97;5051428;28;20436;-62
2022/11/16 03:48:10;;;;;;;22.75;18.65;;;;;;;10.29;100.00;71701.81;5050795;28;20048;-62
2022/11/16 03:50:36;;;;;;;23.33;20.00;;;;;;;10.26;100.00;71352.84;5070816;28;20387;-62
2022/11/16 03:53:01;;;;;;;22.67;19.38;;;;;;;10.25;100.00;71351.72;5062894;28;20045;-62
2022/11/16 03:55:26;;;;;;;27.02;21.05;;;;;;;10.15;100.00;70996.00;5048162;28;20025;-61
2022/11/16 03:57:52;;;;;;;25.88;21.27;;;;;;;10.26;100.00;70661.94;5044149;28;20110;-61
2022/11/16 04:00:17;;;;;;;23.77;21.25;;;;;;;10.31;100.00;70322.19;5051130;28;20098;-61
2022/11/16 04:02:43;;;;;;;30.67;22.70;;;;;;;10.30;100.00;69975.66;5049397;28;20071;-61
2022/11/16 04:24:38;;;;;;;31.35;24.23;;;;;;;10.31;100.00;68250.16;5067302;28;20596;-60
2022/11/16 04:29:57;;;;;;;33.13;25.38;;;;;;;10.32;100.00;67906.56;5070843;28;20044;-59
2022/11/16 04:37:53;;;;;;;28.27;24.40;;;;;;;10.34;100.00;67217.25;5068991;28;20118;-59
2022/11/16 04:40:29;;;;;;;28.23;23.88;;;;;;;10.32;100.00;67215.63;5070910;28;20024;-59
2022/11/16 04:42:59;;;;;;;31.85;23.92;;;;;;;10.35;100.00;66873.69;5068250;28;20127;-60
2022/11/16 04:48:11;;;;;;;36.00;26.45;;;;;;;10.41;100.00;66189.81;5049198;28;20059;-62
2022/11/16 04:50:38;;;;;;;28.55;23.38;;;;;;;10.42;100.00;65500.66;5049984;28;20031;-61
2022/11/16 04:53:04;;;;;;;30.67;23.30;;;;;;;10.46;100.00;65159.25;5065741;28;20044;-61
2022/11/16 04:55:30;;;;;;;30.42;22.67;;;;;;;10.43;100.00;65156.66;5070675;28;20025;-61
2022/11/16 04:57:55;;;;;;;25.80;21.42;;;;;;;10.43;100.00;65156.13;5048815;28;20508;-62
2022/11/16 05:00:21;;;;;;;33.83;25.50;;;;;;;10.44;100.00;64812.66;5062483;28;20032;-62
2022/11/16 05:02:46;;;;;;;31.50;24.95;;;;;;;10.48;100.00;64471.25;5068163;28;20050;-61
2022/11/16 05:05:12;;;;;;;29.38;24.35;;;;;;;10.50;100.00;64472.81;5069450;28;20027;-61
2022/11/16 05:07:37;;;;;;;29.05;23.05;;;;;;;10.50;100.00;64128.31;5058784;28;20558;-61
2022/11/16 05:10:04;;;;;;;30.20;23.30;;;;;;;10.48;100.00;64471.78;5072046;28;20029;-61
2022/11/16 05:12:30;;;;;;;34.97;26.95;;;;;;;10.45;100.00;64468.69;5061456;28;20083;-64
2022/11/16 05:14:55;;;;;;;32.08;24.35;;;;;;;10.46;100.00;64814.72;5051054;28;20111;-61
2022/11/16 05:17:22;;;;;;;33.92;27.80;;;;;;;10.47;100.00;64815.75;5067612;28;20045;-61
2022/11/16 05:22:31;;;;;;;33.65;25.92;;;;;;;10.49;100.00;64817.34;5072070;28;20109;-62
2022/11/16 05:24:57;;;;;;;34.05;28.20;;;;;;;10.52;100.00;64819.91;5071542;28;20024;-61
2022/11/16 05:27:24;;;;;;;34.00;26.25;;;;;;;10.53;100.00;64820.97;5071968;28;20040;-61
2022/11/16 05:29:50;;;;;;;31.58;24.88;;;;;;;10.54;100.00;64821.97;5055164;28;20030;-61
2022/11/16 05:32:19;;;;;;;32.03;25.13;;;;;;;10.52;100.00;65165.00;5071719;28;20178;-61
2022/11/16 05:34:45;;;;;;;35.35;26.77;;;;;;;10.50;100.00;65163.41;5072631;28;20538;-61
2022/11/16 05:37:11;;;;;;;30.95;26.52;;;;;;;10.51;100.00;65163.94;5072440;28;20040;-61
2022/11/16 05:39:37;;;;;;;27.63;23.30;;;;;;;10.59;100.00;64827.16;5073616;28;20094;-61
2022/11/16 05:42:04;;;;;;;32.08;25.02;;;;;;;10.63;100.00;64486.19;5066716;28;20053;-61
2022/11/16 05:44:30;;;;;;;27.77;22.15;;;;;;;10.66;100.00;64489.28;5055227;28;20037;-61
2022/11/16 05:46:56;;;;;;;29.52;24.25;;;;;;;10.70;100.00;64148.28;5059257;28;20060;-59
2022/11/16 05:49:21;;;;;;;29.92;24.08;;;;;;;10.72;100.00;64150.34;5073017;28;20022;-59
2022/11/16 05:51:48;;;;;;;27.38;23.30;;;;;;;10.70;100.00;64148.28;5071422;28;20133;-59
2022/11/16 05:54:18;;;;;;;24.65;22.13;;;;;;;10.71;100.00;64494.44;5073849;28;20040;-59
2022/11/16 05:56:44;;;;;;;27.33;21.60;;;;;;;10.74;100.00;64842.72;5071303;28;20047;-59
2022/11/16 05:59:17;;;;;;;32.13;20.80;;;;;;;10.75;100.00;64843.75;5073259;28;20047;-59
2022/11/16 06:01:42;;;;;;;26.60;21.67;;;;;;;10.74;100.00;65187.91;5071597;28;20040;-59
2022/11/16 06:04:08;;;;;;;25.42;22.63;;;;;;;10.73;100.00;65186.88;5067497;28;20115;-59
2022/11/16 06:06:33;;;;;;;27.42;21.63;;;;;;;10.79;100.00;65193.13;5071708;28;20036;-59
2022/11/16 06:08:59;;;;;;;20.60;18.40;;;;;;;10.81;100.00;65539.44;5072660;28;20498;-58
2022/11/16 06:11:24;;;;;;;23.05;20.63;;;;;;;10.81;100.00;65885.25;5071154;28;20086;-58
2022/11/16 06:13:50;;;;;;;21.80;19.50;;;;;;;10.81;100.00;66230.06;5072986;28;20544;-58
2022/11/16 06:16:15;;;;;;;26.10;20.27;;;;;;;10.77;100.00;66571.69;5071382;28;20024;-58
2022/11/16 06:18:43;;;;;;;27.85;21.48;;;;;;;10.76;100.00;66916.53;5072469;28;20020;-58
2022/11/16 06:21:09;;;;;;;22.85;19.77;;;;;;;10.76;100.00;66916.00;5070700;28;20139;-57
2022/11/16 06:23:35;;;;;;;26.85;20.52;;;;;;;10.76;100.00;66916.53;5072795;28;20020;-58
2022/11/16 06:26:01;;;;;;;22.77;18.85;;;;;;;10.79;100.00;67265.16;5070901;28;20328;-58
2022/11/16 06:28:27;;;;;;;24.65;20.08;;;;;;;10.79;100.00;67265.16;5071997;28;20044;-58
2022/11/16 06:30:52;;;;;;;28.42;19.27;;;;;;;10.79;100.00;67610.59;5072564;28;20024;-58
2022/11/16 06:33:18;;;;;;;25.70;18.05;;;;;;;10.77;100.00;67953.88;5070795;28;20125;-58
2022/11/16 06:35:43;;;;;;;21.60;17.70;;;;;;;10.78;100.00;68300.47;5072495;28;20367;-58
2022/11/16 06:38:17;;;;;;;28.35;19.80;;;;;;;10.74;100.00;68641.63;5071039;28;20081;-58
2022/11/16 06:40:42;;;;;;;22.77;18.83;;;;;;;10.73;100.00;69331.03;5072208;28;20024;-58
2022/11/16 06:43:07;;;;;;;17.95;16.05;;;;;;;10.70;100.00;70019.44;5070602;28;20049;-58
2022/11/16 06:45:33;;;;;;;20.50;17.95;;;;;;;10.67;100.00;70706.75;5072737;28;20016;-58
2022/11/16 06:47:58;;;;;;;19.23;17.27;;;;;;;10.64;100.00;71395.25;5070392;28;20102;-58
2022/11/16 06:50:24;;;;;;;22.35;17.15;;;;;;;10.61;100.00;71738.09;5072430;28;20024;-58
2022/11/16 06:52:49;;;;;;;18.10;15.43;;;;;;;10.60;100.00;72082.09;5070404;28;20036;-58
2022/11/16 06:55:15;;;;;;;17.42;15.27;;;;;;;10.58;100.00;72771.31;5071810;28;20045;-58
2022/11/16 06:57:40;;;;;;;20.33;15.73;;;;;;;10.54;100.00;73113.00;5070342;28;20132;-58
2022/11/16 07:00:08;;;;;;;18.83;16.40;;;;;;;10.48;100.00;73105.94;5072133;28;20078;-58
2022/11/16 07:02:40;;;;;;;18.35;15.70;;;;;;;10.55;100.00;73113.56;5068868;28;20114;-58
2022/11/16 07:05:06;;;;;;;15.23;13.27;;;;;;;10.55;100.00;73113.56;5071832;28;20056;-58
2022/11/16 07:07:32;;;;;;;18.73;15.27;;;;;;;10.53;100.00;73457.03;5070542;28;20063;-58
2022/11/16 07:09:58;;;;;;;19.05;14.02;;;;;;;10.53;100.00;73457.03;5071409;28;20036;-58
2022/11/16 07:12:24;;;;;;;16.67;14.90;;;;;;;10.50;100.00;73799.28;5070363;28;20043;-58
2022/11/16 07:14:49;;;;;;;20.15;14.60;;;;;;;10.50;100.00;73799.28;5071168;28;20028;-58
2022/11/16 07:17:14;;;;;;;14.60;13.10;;;;;;;10.48;100.00;74143.94;5069533;28;20048;-57
2022/11/16 07:19:40;;;;;;;15.43;12.38;;;;;;;10.46;100.00;74141.56;5066202;28;20020;-57
2022/11/16 07:22:07;;;;;;;13.93;12.57;;;;;;;10.45;100.00;74485.63;5057412;28;20092;-57
2022/11/16 07:24:32;;;;;;;13.93;12.43;;;;;;;10.44;100.00;74484.44;5049743;28;20021;-58
2022/11/16 07:26:57;;;;;;;15.52;13.18;;;;;;;10.44;100.00;74484.44;5057031;28;20461;-58
2022/11/16 07:29:23;;;;;;;14.35;12.25;;;;;;;10.44;100.00;74485.03;5071086;28;20202;-57
2022/11/16 07:31:48;;;;;;;13.73;11.60;;;;;;;10.43;100.00;74483.84;5069473;28;20036;-58
2022/11/16 07:34:14;;;;;;;16.95;12.82;;;;;;;10.44;100.00;74139.19;5071268;28;20415;-57
2022/11/16 07:36:39;;;;;;;17.85;12.32;;;;;;;10.43;100.00;74137.38;5068891;28;20040;-58
2022/11/16 07:39:05;;;;;;;13.18;11.80;;;;;;;10.41;100.00;74135.03;5062501;28;20028;-57
2022/11/16 07:41:31;;;;;;;18.90;14.48;;;;;;;10.42;100.00;73790.41;5053872;28;20036;-58
2022/11/16 07:43:56;;;;;;;13.10;11.75;;;;;;;10.41;100.00;73789.22;5070605;28;20082;-57
2022/11/16 07:46:24;;;;;;;13.90;12.02;;;;;;;10.39;100.00;73787.44;5069697;28;20040;-58
2022/11/16 07:48:50;;;;;;;13.38;12.07;;;;;;;10.40;100.00;74134.41;5070126;28;20095;-57
2022/11/16 07:51:16;;;;;;;16.67;12.00;;;;;;;10.37;100.00;74476.66;5069596;28;20016;-57
2022/11/16 07:53:43;;;;;;;16.90;12.70;;;;;;;10.43;100.00;74829.69;5070737;28;20043;-57
2022/11/16 07:56:09;;;;;;;15.63;13.48;;;;;;;10.45;100.00;75178.03;5069013;28;20067;-57
2022/11/16 07:58:35;;;;;;;13.32;12.10;;;;;;;10.45;100.00;75869.94;5070575;28;20056;-58
2022/11/16 08:01:12;;;;;;;12.45;11.23;;;;;;;10.45;100.00;76561.97;5069025;28;20024;-57
2022/11/16 08:03:40;;;;;;;12.88;8.63;;;;;;;10.42;100.00;77596.47;5070307;28;20563;-57
2022/11/16 08:06:25;;;;;;;10.20;9.20;;;;;;;10.42;100.00;78634.34;5069119;28;20024;-57
2022/11/16 08:08:51;;;;;;;14.10;9.75;;;;;;;10.42;100.00;79673.72;5069492;28;20040;-57
2022/11/16 08:11:16;;;;;;;19.13;8.93;;;;;;;10.43;100.00;80367.69;5069323;28;20025;-58
2022/11/16 08:13:42;;;;;;;10.52;7.93;;;;;;;10.46;100.00;81757.31;5070557;28;20031;-58
2022/11/16 08:16:11;;;;;;;9.35;7.97;;;;;;;10.45;100.00;83835.50;5057670;28;20073;-57
2022/11/16 08:18:38;;;;;;;21.77;8.00;;;;;;;10.48;100.00;85573.38;5070458;28;20559;-57
2022/11/16 08:21:07;;;;;;;13.80;8.63;;;;;;;10.57;100.00;86625.25;5067629;28;20028;-57
2022/11/16 08:23:33;;;;;;;9.00;6.38;;;;;;;10.58;100.00;89403.47;5070354;28;20029;-58
2022/11/16 08:25:59;;;;;;;8.32;7.05;;;;;;;10.58;100.00;91488.06;5068832;28;20107;-51
2022/11/16 08:28:26;;;;;;;7.95;6.47;;;;;;;10.63;100.00;92189.66;5070624;28;20020;-58
2022/11/16 08:30:53;;;;;;;11.35;6.95;;;;;;;10.73;100.00;90814.66;5070091;28;20017;-58
2022/11/16 08:33:20;;;;;;;6.95;5.70;;;;;;;10.76;100.00;92904.25;5062663;28;20070;-58
2022/11/16 08:35:47;;;;;;;9.23;6.55;;;;;;;10.80;100.00;97431.47;5057754;28;20038;-58
2022/11/16 08:38:12;;;;;;;10.07;5.63;;;;;;;11.08;100.00;102701.28;5065383;28;20131;-58
2022/11/16 08:40:38;;;;;;;7.55;5.40;;;;;;;11.46;100.00;117090.72;5053188;28;20024;-58
2022/11/16 08:43:03;;;;;;;7.78;5.93;;;;;;;11.59;100.00;144166.03;5062026;28;20098;-58
2022/11/16 08:45:28;;;;;;;20.13;7.55;;;;;;;11.42;100.00;163550.06;5063638;28;20589;-58
2022/11/16 08:47:55;;;;;;;9.00;5.32;;;;;;;11.36;100.00;163533.88;5058786;28;20402;-58
2022/11/16 08:50:20;;;;;;;8.15;4.70;;;;;;;11.28;100.00;163513.63;5070956;28;20071;-58
2022/11/16 08:52:46;;;;;;;8.48;5.38;;;;;;;11.29;100.00;163516.28;5056932;28;20097;-58
2022/11/16 08:55:12;;;;;;;11.30;6.95;;;;;;;11.34;100.00;163528.44;5065876;28;20049;-58
2022/11/16 08:57:38;;;;;;;10.07;7.22;;;;;;;11.69;100.00;163621.66;5050665;28;20082;-58
2022/11/16 09:00:05;;;;;;;7.70;4.15;;;;;;;11.94;100.00;163686.50;5039194;28;20037;-58
2022/11/16 09:02:30;;;;;;;9.35;5.22;;;;;;;11.98;100.00;163697.34;5050487;28;20140;-58
2022/11/16 09:04:56;;;;;;;9.23;7.65;;;;;;;12.14;100.00;163737.88;5046753;28;20103;-58
2022/11/16 09:07:21;;;;;;;9.68;5.07;;;;;;;12.17;100.00;163747.34;5032980;28;20041;-58
2022/11/16 09:09:46;;;;;;;11.13;5.53;;;;;;;12.27;100.00;163771.66;5033892;28;20032;-58
2022/11/16 09:12:12;;;;;;;11.25;5.50;;;;;;;12.23;100.00;163762.22;5033605;28;20033;-58
2022/11/16 09:14:37;;;;;;;7.38;4.90;;;;;;;12.00;100.00;163702.75;5054063;28;20033;-58
2022/11/16 09:17:03;;;;;;;10.38;3.78;;;;;;;11.86;100.00;163664.91;5056878;28;20044;-58
2022/11/16 09:19:28;;;;;;;5.70;5.10;;;;;;;11.86;100.00;163664.91;5066698;28;20017;-58
2022/11/16 09:21:54;;;;;;;10.32;6.05;;;;;;;11.99;100.00;163700.06;5052259;28;20403;-58
2022/11/16 09:24:20;;;;;;;10.60;5.22;;;;;;;12.18;100.00;163748.66;5054676;28;20029;-58
2022/11/16 09:26:45;;;;;;;9.30;7.05;;;;;;;12.51;100.00;163835.16;5067133;28;20032;-58
2022/11/16 09:29:12;;;;;;;9.63;5.35;;;;;;;12.75;100.00;163897.34;5073898;28;20482;-58
2022/11/16 09:31:38;;;;;;;14.82;5.25;;;;;;;13.08;100.00;163983.81;5071571;28;20120;-58
2022/11/16 09:34:04;;;;;;;13.88;6.35;;;;;;;13.08;100.00;163983.81;5063907;28;20029;-58
2022/11/16 09:36:29;;;;;;;5.45;4.65;;;;;;;13.08;100.00;163983.81;5066293;28;20410;-58
2022/11/16 09:38:55;;;;;;;7.72;5.60;;;;;;;12.70;100.00;163886.50;5056390;28;20032;-58
2022/11/16 09:41:32;;;;;;;12.68;4.80;;;;;;;12.68;100.00;163881.13;5038802;28;20124;-58
2022/11/16 09:44:01;;;;;;;13.23;5.47;;;;;;;12.55;100.00;163845.97;5064550;28;20356;-58
2022/11/16 09:46:38;;;;;;;8.38;5.47;;;;;;;12.53;100.00;163840.59;5063373;28;20032;-58
2022/11/16 09:49:12;;;;;;;12.27;4.90;;;;;;;12.41;100.00;163809.50;5053377;28;20032;-58
2022/11/16 09:51:40;;;;;;;13.25;5.32;;;;;;;12.19;100.00;163751.38;5068077;28;20112;-58
2022/11/16 09:54:12;;;;;;;10.85;5.70;;;;;;;11.96;100.00;163691.88;5073084;28;20052;-58
2022/11/16 09:56:40;;;;;;;9.48;6.03;;;;;;;11.58;100.00;163591.91;5069921;28;20119;-58
2022/11/16 09:59:18;;;;;;;10.68;5.68;;;;;;;11.65;100.00;163610.88;5072234;28;20437;-58
2022/11/16 10:02:00;;;;;;;6.53;4.88;;;;;;;11.73;100.00;163632.44;5071298;28;20040;-58
2022/11/16 10:04:37;;;;;;;16.48;6.05;;;;;;;11.59;100.00;163594.63;5071758;28;20089;-58
2022/11/16 10:07:13;;;;;;;10.30;4.45;;;;;;;11.75;100.00;163636.53;5071092;28;20101;-58
2022/11/16 10:09:38;;;;;;;7.05;3.70;;;;;;;12.10;100.00;163727.09;5073234;28;20032;-58
2022/11/16 10:12:34;;;;;;;7.65;3.22;;;;;;;12.27;100.00;163773.00;5070248;28;20044;-58
2022/11/16 10:15:44;;;;;;;8.15;4.50;;;;;;;12.20;100.00;163754.09;5072657;28;20078;-58
2022/11/16 10:18:37;;;;;;;7.47;4.82;;;;;;;12.20;100.00;163754.09;5070918;28;20048;-58
2022/11/16 10:21:34;;;;;;;11.90;4.63;;;;;;;12.11;100.00;163729.75;5071167;28;20028;-57
2022/11/16 10:24:33;;;;;;;14.38;4.60;;;;;;;12.33;100.00;163789.22;5055311;28;20037;-58
2022/11/16 10:27:19;;;;;;;7.68;4.18;;;;;;;12.49;100.00;163831.13;5057022;28;20043;-58
2022/11/16 10:30:05;;;;;;;10.20;5.35;;;;;;;12.53;100.00;163840.59;5072283;28;20505;-58
2022/11/16 10:32:56;;;;;;;8.95;4.28;;;;;;;12.67;100.00;163878.44;5071313;28;20047;-58
2022/11/16 10:35:26;;;;;;;6.53;3.63;;;;;;;12.81;100.00;163913.56;5066907;28;20044;-58
2022/11/16 10:37:51;;;;;;;15.55;4.93;;;;;;;12.62;100.00;163864.88;5070434;28;20048;-58
2022/11/16 10:40:19;;;;;;;9.48;3.85;;;;;;;12.33;100.00;163789.22;5072918;28;20039;-58
2022/11/16 10:43:15;;;;;;;13.52;3.75;;;;;;;12.22;100.00;163759.50;5070954;28;20036;-58
2022/11/16 10:46:11;;;;;;;18.20;5.30;;;;;;;12.13;100.00;163736.56;5072195;28;20028;-58
2022/11/16 10:48:54;;;;;;;9.85;4.85;;;;;;;12.14;100.00;163737.88;5071040;28;20066;-58
2022/11/16 10:51:20;;;;;;;11.50;5.43;;;;;;;12.21;100.00;163756.78;5070945;28;20086;-58
2022/11/16 10:53:45;;;;;;;6.22;3.65;;;;;;;12.49;100.00;163829.75;5071756;28;20383;-58
2022/11/16 10:56:31;;;;;;;13.07;4.63;;;;;;;12.73;100.00;163893.31;5070374;28;20103;-58
2022/11/16 10:59:08;;;;;;;10.45;4.55;;;;;;;12.65;100.00;163873.00;5050682;28;20086;-58
2022/11/16 11:01:52;;;;;;;15.98;4.00;;;;;;;12.17;100.00;163746.00;5050425;28;20048;-58
2022/11/16 11:04:27;;;;;;;11.48;4.55;;;;;;;11.78;100.00;163643.28;5054288;28;20021;-58
2022/11/16 11:06:54;;;;;;;10.90;4.93;;;;;;;11.65;100.00;163610.88;5048040;28;20052;-58
2022/11/16 11:09:37;;;;;;;16.13;6.32;;;;;;;11.85;100.00;163662.19;5066276;28;20037;-58
2022/11/16 11:12:36;;;;;;;12.10;4.75;;;;;;;12.01;100.00;163705.47;5069663;28;20048;-58
2022/11/16 11:15:11;;;;;;;17.88;4.65;;;;;;;12.19;100.00;163752.75;5070786;28;20067;-58
2022/11/16 11:17:39;;;;;;;14.15;3.53;;;;;;;12.28;100.00;163775.72;5069757;28;20051;-58
2022/11/16 11:20:16;;;;;;;12.00;4.15;;;;;;;12.31;100.00;163783.84;5065561;28;20502;-58
2022/11/16 11:22:56;;;;;;;7.38;3.97;;;;;;;12.32;100.00;163785.16;5064853;28;20055;-58
2022/11/16 11:25:31;;;;;;;10.23;3.53;;;;;;;12.40;100.00;163806.78;5065136;28;20108;-58
2022/11/16 11:28:21;;;;;;;14.48;4.30;;;;;;;12.37;100.00;163800.03;5052102;28;20045;-58
2022/11/16 11:31:02;;;;;;;8.13;3.15;;;;;;;12.43;100.00;163813.53;5052298;28;20031;-58
2022/11/16 11:33:42;;;;;;;10.30;3.55;;;;;;;12.42;100.00;163812.22;5069574;28;20076;-58
2022/11/16 11:36:21;;;;;;;17.63;5.00;;;;;;;12.44;100.00;163816.25;5067776;28;20112;-57
2022/11/16 11:39:09;;;;;;;16.65;4.50;;;;;;;12.56;100.00;163848.66;5071119;28;20025;-58
2022/11/16 11:41:58;;;;;;;8.35;3.25;;;;;;;12.53;100.00;163841.91;5069579;28;20037;-58
2022/11/16 11:44:50;;;;;;;13.18;3.35;;;;;;;12.25;100.00;163767.59;5070430;28;20028;-58
2022/11/16 11:47:53;;;;;;;11.63;4.57;;;;;;;12.19;100.00;163752.75;5069441;28;20071;-58
2022/11/16 11:50:26;;;;;;;7.95;2.97;;;;;;;12.22;100.00;163759.50;5070900;28;20048;-58
2022/11/16 11:53:19;;;;;;;5.55;2.67;;;;;;;12.46;100.00;163821.66;5068896;28;20433;-58
2022/11/16 11:55:45;;;;;;;9.27;3.95;;;;;;;12.66;100.00;163874.34;5070730;28;20178;-58
2022/11/16 11:58:17;;;;;;;7.68;3.30;;;;;;;12.81;100.00;163913.56;5068999;28;20514;-58
2022/11/16 12:01:08;;;;;;;10.25;3.03;;;;;;;12.73;100.00;163891.94;5070476;28;20025;-58